sensor_id;sensor_type;location;lat;lon;timestamp;temperature;humidity
21895;DHT22;11112;51.270;7.224;2023-09-12T00:01:24;23.90;99.90
21895;DHT22;11112;51.270;7.224;2023-09-12T00:03:51;23.90;99.90
21895;DHT22;11112;51.270;7.224;2023-09-12T00:06:18;23.90;99.90
21895;DHT22;11112;51.270;7.224;2023-09-12T00:08:46;23.90;99.90
21895;DHT22;11112;51.270;7.224;2023-09-12T00:11:13;23.90;99.90
21895;DHT22;11112;51.270;7.224;2023-09-12T00:13:41;23.90;99.90
21895;DHT22;11112;51.270;7.224;2023-09-12T00:16:10;23.80;99.90
21895;DHT22;11112;51.270;7.224;2023-09-12T00:18:38;23.80;99.90
21895;DHT22;11112;51.270;7.224;2023-09-12T00:21:08;23.80;99.90
21895;DHT22;11112;51.270;7.224;2023-09-12T00:23:36;23.80;99.90
21895;DHT22;11112;51.270;7.224;2023-09-12T00:26:03;23.80;99.90
21895;DHT22;11112;51.270;7.224;2023-09-12T00:28:30;23.80;99.90
21895;DHT22;11112;51.270;7.224;2023-09-12T00:30:59;23.80;99.90
21895;DHT22;11112;51.270;7.224;2023-09-12T00:33:27;23.80;99.90
21895;DHT22;11112;51.270;7.224;2023-09-12T00:35:55;23.70;99.90
21895;DHT22;11112;51.270;7.224;2023-09-12T00:38:22;23.70;99.90
21895;DHT22;11112;51.270;7.224;2023-09-12T00:40:49;23.70;99.90
21895;DHT22;11112;51.270;7.224;2023-09-12T00:43:17;23.70;99.90
21895;DHT22;11112;51.270;7.224;2023-09-12T00:45:44;23.70;99.90
21895;DHT22;11112;51.270;7.224;2023-09-12T00:48:13;23.70;99.90
21895;DHT22;11112;51.270;7.224;2023-09-12T00:50:42;23.70;99.90
21895;DHT22;11112;51.270;7.224;2023-09-12T00:53:11;23.70;99.90
21895;DHT22;11112;51.270;7.224;2023-09-12T00:55:42;23.60;99.90
21895;DHT22;11112;51.270;7.224;2023-09-12T00:58:13;23.60;99.90
21895;DHT22;11112;51.270;7.224;2023-09-12T01:00:41;23.60;99.90
21895;DHT22;11112;51.270;7.224;2023-09-12T01:03:08;23.60;99.90
21895;DHT22;11112;51.270;7.224;2023-09-12T01:05:36;23.50;99.50
21895;DHT22;11112;51.270;7.224;2023-09-12T01:08:05;23.40;99.50
21895;DHT22;11112;51.270;7.224;2023-09-12T01:10:32;23.30;99.90
21895;DHT22;11112;51.270;7.224;2023-09-12T01:13:00;23.30;99.70
21895;DHT22;11112;51.270;7.224;2023-09-12T01:15:27;23.40;99.70
21895;DHT22;11112;51.270;7.224;2023-09-12T01:17:54;23.40;99.50
21895;DHT22;11112;51.270;7.224;2023-09-12T01:20:25;23.30;99.30
21895;DHT22;11112;51.270;7.224;2023-09-12T01:23:00;23.30;99.40
21895;DHT22;11112;51.270;7.224;2023-09-12T01:26:04;23.30;99.30
21895;DHT22;11112;51.270;7.224;2023-09-12T01:28:45;23.20;99.30
21895;DHT22;11112;51.270;7.224;2023-09-12T01:31:15;23.20;99.30
21895;DHT22;11112;51.270;7.224;2023-09-12T01:33:44;23.20;99.20
21895;DHT22;11112;51.270;7.224;2023-09-12T01:36:11;23.20;99.20
21895;DHT22;11112;51.270;7.224;2023-09-12T01:38:38;23.20;99.20
21895;DHT22;11112;51.270;7.224;2023-09-12T01:41:06;23.20;99.20
21895;DHT22;11112;51.270;7.224;2023-09-12T01:43:36;23.20;99.30
21895;DHT22;11112;51.270;7.224;2023-09-12T01:46:07;23.10;99.30
21895;DHT22;11112;51.270;7.224;2023-09-12T01:48:35;23.10;99.30
21895;DHT22;11112;51.270;7.224;2023-09-12T01:51:04;23.10;99.30
21895;DHT22;11112;51.270;7.224;2023-09-12T01:53:33;23.10;99.40
21895;DHT22;11112;51.270;7.224;2023-09-12T01:56:01;23.20;99.40
21895;DHT22;11112;51.270;7.224;2023-09-12T01:58:29;23.20;99.30
21895;DHT22;11112;51.270;7.224;2023-09-12T02:00:57;23.20;99.30
21895;DHT22;11112;51.270;7.224;2023-09-12T02:03:26;23.20;99.30
21895;DHT22;11112;51.270;7.224;2023-09-12T02:05:54;23.20;99.20
21895;DHT22;11112;51.270;7.224;2023-09-12T02:08:22;23.20;99.30
21895;DHT22;11112;51.270;7.224;2023-09-12T02:10:50;23.20;99.30
21895;DHT22;11112;51.270;7.224;2023-09-12T02:13:17;23.20;99.30
21895;DHT22;11112;51.270;7.224;2023-09-12T02:15:44;23.20;99.30
21895;DHT22;11112;51.270;7.224;2023-09-12T02:18:12;23.20;99.30
21895;DHT22;11112;51.270;7.224;2023-09-12T02:20:42;23.20;99.30
21895;DHT22;11112;51.270;7.224;2023-09-12T02:23:11;23.20;99.30
21895;DHT22;11112;51.270;7.224;2023-09-12T02:25:39;23.20;99.20
21895;DHT22;11112;51.270;7.224;2023-09-12T02:28:06;23.10;99.00
21895;DHT22;11112;51.270;7.224;2023-09-12T02:30:34;23.10;99.10
21895;DHT22;11112;51.270;7.224;2023-09-12T02:33:01;23.10;99.20
21895;DHT22;11112;51.270;7.224;2023-09-12T02:35:29;23.10;99.20
21895;DHT22;11112;51.270;7.224;2023-09-12T02:37:58;23.10;99.30
21895;DHT22;11112;51.270;7.224;2023-09-12T02:40:25;23.00;99.20
21895;DHT22;11112;51.270;7.224;2023-09-12T02:42:52;23.00;99.20
21895;DHT22;11112;51.270;7.224;2023-09-12T02:45:20;23.00;99.30
21895;DHT22;11112;51.270;7.224;2023-09-12T02:47:47;23.00;99.30
21895;DHT22;11112;51.270;7.224;2023-09-12T02:50:14;23.00;99.30
21895;DHT22;11112;51.270;7.224;2023-09-12T02:52:41;23.00;99.20
21895;DHT22;11112;51.270;7.224;2023-09-12T02:55:12;23.00;99.20
21895;DHT22;11112;51.270;7.224;2023-09-12T02:57:39;23.00;99.20
21895;DHT22;11112;51.270;7.224;2023-09-12T03:00:08;23.00;99.20
21895;DHT22;11112;51.270;7.224;2023-09-12T03:02:37;23.00;99.20
21895;DHT22;11112;51.270;7.224;2023-09-12T03:05:05;23.00;99.20
21895;DHT22;11112;51.270;7.224;2023-09-12T03:07:32;23.00;99.20
21895;DHT22;11112;51.270;7.224;2023-09-12T03:09:59;23.00;99.20
21895;DHT22;11112;51.270;7.224;2023-09-12T03:12:28;23.00;99.20
21895;DHT22;11112;51.270;7.224;2023-09-12T03:14:56;23.00;99.20
21895;DHT22;11112;51.270;7.224;2023-09-12T03:17:24;23.00;99.20
21895;DHT22;11112;51.270;7.224;2023-09-12T03:19:54;22.90;99.30
21895;DHT22;11112;51.270;7.224;2023-09-12T03:22:21;22.90;99.40
21895;DHT22;11112;51.270;7.224;2023-09-12T03:24:50;22.90;99.50
21895;DHT22;11112;51.270;7.224;2023-09-12T03:27:17;22.80;99.50
21895;DHT22;11112;51.270;7.224;2023-09-12T03:29:48;22.80;99.70
21895;DHT22;11112;51.270;7.224;2023-09-12T03:32:15;22.80;99.80
21895;DHT22;11112;51.270;7.224;2023-09-12T03:34:42;22.80;99.90
21895;DHT22;11112;51.270;7.224;2023-09-12T03:37:10;22.80;99.90
21895;DHT22;11112;51.270;7.224;2023-09-12T03:39:37;22.80;99.90
21895;DHT22;11112;51.270;7.224;2023-09-12T03:42:05;22.80;99.80
21895;DHT22;11112;51.270;7.224;2023-09-12T03:44:32;22.80;99.70
21895;DHT22;11112;51.270;7.224;2023-09-12T03:47:01;22.80;99.70
21895;DHT22;11112;51.270;7.224;2023-09-12T03:49:29;22.80;99.70
21895;DHT22;11112;51.270;7.224;2023-09-12T03:51:58;22.80;99.40
21895;DHT22;11112;51.270;7.224;2023-09-12T03:54:25;22.80;99.10
21895;DHT22;11112;51.270;7.224;2023-09-12T03:56:53;22.80;99.00
21895;DHT22;11112;51.270;7.224;2023-09-12T03:59:20;22.80;98.90
21895;DHT22;11112;51.270;7.224;2023-09-12T04:01:47;22.80;98.90
21895;DHT22;11112;51.270;7.224;2023-09-12T04:04:18;22.80;99.00
21895;DHT22;11112;51.270;7.224;2023-09-12T04:06:45;22.80;99.10
21895;DHT22;11112;51.270;7.224;2023-09-12T04:09:12;22.70;99.20
21895;DHT22;11112;51.270;7.224;2023-09-12T04:11:40;22.70;99.20
21895;DHT22;11112;51.270;7.224;2023-09-12T04:14:07;22.70;99.30
21895;DHT22;11112;51.270;7.224;2023-09-12T04:16:35;22.70;99.20
21895;DHT22;11112;51.270;7.224;2023-09-12T04:19:02;22.70;99.10
21895;DHT22;11112;51.270;7.224;2023-09-12T04:21:32;22.70;99.10
21895;DHT22;11112;51.270;7.224;2023-09-12T04:23:59;22.70;99.10
21895;DHT22;11112;51.270;7.224;2023-09-12T04:26:26;22.70;99.00
21895;DHT22;11112;51.270;7.224;2023-09-12T04:28:54;22.70;98.90
21895;DHT22;11112;51.270;7.224;2023-09-12T04:31:21;22.70;98.80
21895;DHT22;11112;51.270;7.224;2023-09-12T04:33:51;22.60;98.80
21895;DHT22;11112;51.270;7.224;2023-09-12T04:36:19;22.60;98.60
21895;DHT22;11112;51.270;7.224;2023-09-12T04:38:47;22.60;98.60
21895;DHT22;11112;51.270;7.224;2023-09-12T04:41:14;22.50;98.70
21895;DHT22;11112;51.270;7.224;2023-09-12T04:43:42;22.50;98.80
21895;DHT22;11112;51.270;7.224;2023-09-12T04:46:12;22.60;98.90
21895;DHT22;11112;51.270;7.224;2023-09-12T04:48:40;22.60;98.80
21895;DHT22;11112;51.270;7.224;2023-09-12T04:51:09;22.60;98.90
21895;DHT22;11112;51.270;7.224;2023-09-12T04:53:36;22.60;98.80
21895;DHT22;11112;51.270;7.224;2023-09-12T04:56:05;22.50;98.80
21895;DHT22;11112;51.270;7.224;2023-09-12T04:58:35;22.60;98.90
21895;DHT22;11112;51.270;7.224;2023-09-12T05:01:02;22.50;99.10
21895;DHT22;11112;51.270;7.224;2023-09-12T05:03:31;22.50;99.10
21895;DHT22;11112;51.270;7.224;2023-09-12T05:06:00;22.50;99.10
21895;DHT22;11112;51.270;7.224;2023-09-12T05:08:27;22.50;99.10
21895;DHT22;11112;51.270;7.224;2023-09-12T05:10:55;22.50;99.10
21895;DHT22;11112;51.270;7.224;2023-09-12T05:13:23;22.60;99.30
21895;DHT22;11112;51.270;7.224;2023-09-12T05:15:51;22.60;99.10
21895;DHT22;11112;51.270;7.224;2023-09-12T05:18:18;22.50;99.30
21895;DHT22;11112;51.270;7.224;2023-09-12T05:20:46;22.60;99.40
21895;DHT22;11112;51.270;7.224;2023-09-12T05:23:13;22.60;99.40
21895;DHT22;11112;51.270;7.224;2023-09-12T05:25:40;22.60;99.40
21895;DHT22;11112;51.270;7.224;2023-09-12T05:28:07;22.60;99.30
21895;DHT22;11112;51.270;7.224;2023-09-12T05:30:36;22.60;99.50
21895;DHT22;11112;51.270;7.224;2023-09-12T05:33:04;22.60;99.80
21895;DHT22;11112;51.270;7.224;2023-09-12T05:35:31;22.40;99.70
21895;DHT22;11112;51.270;7.224;2023-09-12T05:37:58;22.40;99.90
21895;DHT22;11112;51.270;7.224;2023-09-12T05:40:26;22.40;99.90
21895;DHT22;11112;51.270;7.224;2023-09-12T05:42:53;22.50;99.90
21895;DHT22;11112;51.270;7.224;2023-09-12T05:45:21;22.40;99.90
21895;DHT22;11112;51.270;7.224;2023-09-12T05:47:51;22.40;99.90
21895;DHT22;11112;51.270;7.224;2023-09-12T05:50:19;22.50;99.90
21895;DHT22;11112;51.270;7.224;2023-09-12T05:52:46;22.50;99.90
21895;DHT22;11112;51.270;7.224;2023-09-12T05:55:14;22.50;99.90
21895;DHT22;11112;51.270;7.224;2023-09-12T05:57:42;22.60;99.90
21895;DHT22;11112;51.270;7.224;2023-09-12T06:00:10;22.60;99.90
21895;DHT22;11112;51.270;7.224;2023-09-12T06:02:41;22.60;99.90
21895;DHT22;11112;51.270;7.224;2023-09-12T06:05:10;22.60;99.90
21895;DHT22;11112;51.270;7.224;2023-09-12T06:07:40;22.60;99.90
21895;DHT22;11112;51.270;7.224;2023-09-12T06:10:08;22.70;99.90
21895;DHT22;11112;51.270;7.224;2023-09-12T06:12:36;22.70;99.90
21895;DHT22;11112;51.270;7.224;2023-09-12T06:15:04;22.70;99.90
21895;DHT22;11112;51.270;7.224;2023-09-12T06:17:32;22.70;99.90
21895;DHT22;11112;51.270;7.224;2023-09-12T06:19:59;22.70;99.90
21895;DHT22;11112;51.270;7.224;2023-09-12T06:22:28;22.70;99.90
21895;DHT22;11112;51.270;7.224;2023-09-12T06:24:55;22.70;99.90
21895;DHT22;11112;51.270;7.224;2023-09-12T06:27:24;22.70;99.90
21895;DHT22;11112;51.270;7.224;2023-09-12T06:29:52;22.70;99.90
21895;DHT22;11112;51.270;7.224;2023-09-12T06:32:19;22.70;99.90
21895;DHT22;11112;51.270;7.224;2023-09-12T06:34:46;22.70;99.90
21895;DHT22;11112;51.270;7.224;2023-09-12T06:37:14;22.80;99.90
21895;DHT22;11112;51.270;7.224;2023-09-12T06:39:43;22.80;99.90
21895;DHT22;11112;51.270;7.224;2023-09-12T06:42:10;22.80;99.90
21895;DHT22;11112;51.270;7.224;2023-09-12T06:44:38;22.70;99.90
21895;DHT22;11112;51.270;7.224;2023-09-12T06:47:05;22.70;99.90
21895;DHT22;11112;51.270;7.224;2023-09-12T06:49:34;22.70;99.90
21895;DHT22;11112;51.270;7.224;2023-09-12T06:52:03;22.80;99.90
21895;DHT22;11112;51.270;7.224;2023-09-12T06:54:32;22.80;99.90
21895;DHT22;11112;51.270;7.224;2023-09-12T06:57:01;22.80;99.90
21895;DHT22;11112;51.270;7.224;2023-09-12T06:59:29;22.80;99.70
21895;DHT22;11112;51.270;7.224;2023-09-12T07:01:56;22.80;99.60
21895;DHT22;11112;51.270;7.224;2023-09-12T07:04:23;22.80;99.60
21895;DHT22;11112;51.270;7.224;2023-09-12T07:06:51;22.80;99.40
21895;DHT22;11112;51.270;7.224;2023-09-12T07:09:18;22.80;99.40
21895;DHT22;11112;51.270;7.224;2023-09-12T07:11:46;22.80;99.40
21895;DHT22;11112;51.270;7.224;2023-09-12T07:14:15;22.90;99.40
21895;DHT22;11112;51.270;7.224;2023-09-12T07:16:43;22.80;99.20
21895;DHT22;11112;51.270;7.224;2023-09-12T07:19:10;22.90;99.20
21895;DHT22;11112;51.270;7.224;2023-09-12T07:21:37;22.90;99.20
21895;DHT22;11112;51.270;7.224;2023-09-12T07:24:05;22.90;99.60
21895;DHT22;11112;51.270;7.224;2023-09-12T07:26:32;23.00;98.90
21895;DHT22;11112;51.270;7.224;2023-09-12T07:28:59;23.00;98.80
21895;DHT22;11112;51.270;7.224;2023-09-12T07:31:33;23.00;98.90
21895;DHT22;11112;51.270;7.224;2023-09-12T07:34:00;23.00;98.80
21895;DHT22;11112;51.270;7.224;2023-09-12T07:36:28;23.10;98.60
21895;DHT22;11112;51.270;7.224;2023-09-12T07:38:55;23.00;98.40
21895;DHT22;11112;51.270;7.224;2023-09-12T07:41:23;23.00;98.50
21895;DHT22;11112;51.270;7.224;2023-09-12T07:43:53;23.00;98.60
21895;DHT22;11112;51.270;7.224;2023-09-12T07:46:22;23.10;98.50
21895;DHT22;11112;51.270;7.224;2023-09-12T07:48:51;23.10;98.50
21895;DHT22;11112;51.270;7.224;2023-09-12T07:51:19;23.00;98.50
21895;DHT22;11112;51.270;7.224;2023-09-12T07:53:48;23.00;98.50
21895;DHT22;11112;51.270;7.224;2023-09-12T07:56:16;23.10;98.80
21895;DHT22;11112;51.270;7.224;2023-09-12T07:58:43;23.10;98.60
21895;DHT22;11112;51.270;7.224;2023-09-12T08:01:10;23.10;98.40
21895;DHT22;11112;51.270;7.224;2023-09-12T08:03:39;23.10;98.40
21895;DHT22;11112;51.270;7.224;2023-09-12T08:06:10;23.10;98.40
21895;DHT22;11112;51.270;7.224;2023-09-12T08:08:37;23.10;98.30
21895;DHT22;11112;51.270;7.224;2023-09-12T08:11:06;23.00;98.40
21895;DHT22;11112;51.270;7.224;2023-09-12T08:13:33;23.10;98.50
21895;DHT22;11112;51.270;7.224;2023-09-12T08:16:00;23.10;98.70
21895;DHT22;11112;51.270;7.224;2023-09-12T08:18:30;23.10;98.70
21895;DHT22;11112;51.270;7.224;2023-09-12T08:20:57;23.10;98.70
21895;DHT22;11112;51.270;7.224;2023-09-12T08:23:26;23.10;98.50
21895;DHT22;11112;51.270;7.224;2023-09-12T08:25:53;23.10;98.70
21895;DHT22;11112;51.270;7.224;2023-09-12T08:28:21;23.10;98.60
21895;DHT22;11112;51.270;7.224;2023-09-12T08:30:48;23.10;98.60
21895;DHT22;11112;51.270;7.224;2023-09-12T08:33:15;23.00;98.70
21895;DHT22;11112;51.270;7.224;2023-09-12T08:35:42;23.10;98.90
21895;DHT22;11112;51.270;7.224;2023-09-12T08:38:09;23.10;98.50
21895;DHT22;11112;51.270;7.224;2023-09-12T08:40:41;23.10;98.30
21895;DHT22;11112;51.270;7.224;2023-09-12T08:43:15;23.20;98.50
21895;DHT22;11112;51.270;7.224;2023-09-12T08:45:43;23.30;98.50
21895;DHT22;11112;51.270;7.224;2023-09-12T08:48:11;23.30;98.30
21895;DHT22;11112;51.270;7.224;2023-09-12T08:50:39;23.30;98.30
21895;DHT22;11112;51.270;7.224;2023-09-12T08:53:07;23.30;98.30
21895;DHT22;11112;51.270;7.224;2023-09-12T08:55:38;23.30;98.20
21895;DHT22;11112;51.270;7.224;2023-09-12T08:58:06;23.30;98.10
21895;DHT22;11112;51.270;7.224;2023-09-12T09:00:35;23.30;98.20
21895;DHT22;11112;51.270;7.224;2023-09-12T09:03:03;23.40;98.40
21895;DHT22;11112;51.270;7.224;2023-09-12T09:05:31;23.40;98.30
21895;DHT22;11112;51.270;7.224;2023-09-12T09:08:00;23.50;98.40
21895;DHT22;11112;51.270;7.224;2023-09-12T09:10:29;23.50;98.20
21895;DHT22;11112;51.270;7.224;2023-09-12T09:12:59;23.50;98.20
21895;DHT22;11112;51.270;7.224;2023-09-12T09:15:28;23.50;98.20
21895;DHT22;11112;51.270;7.224;2023-09-12T09:17:58;23.50;98.30
21895;DHT22;11112;51.270;7.224;2023-09-12T09:20:29;23.60;98.30
21895;DHT22;11112;51.270;7.224;2023-09-12T09:23:01;23.60;98.40
21895;DHT22;11112;51.270;7.224;2023-09-12T09:25:31;23.60;98.60
21895;DHT22;11112;51.270;7.224;2023-09-12T09:28:02;23.60;98.70
21895;DHT22;11112;51.270;7.224;2023-09-12T09:30:41;23.50;98.90
21895;DHT22;11112;51.270;7.224;2023-09-12T09:33:09;23.50;98.90
21895;DHT22;11112;51.270;7.224;2023-09-12T09:35:36;23.60;98.80
21895;DHT22;11112;51.270;7.224;2023-09-12T09:38:06;23.60;98.70
21895;DHT22;11112;51.270;7.224;2023-09-12T09:40:34;23.60;98.70
21895;DHT22;11112;51.270;7.224;2023-09-12T09:43:04;23.70;98.60
21895;DHT22;11112;51.270;7.224;2023-09-12T09:45:31;23.70;98.70
21895;DHT22;11112;51.270;7.224;2023-09-12T09:48:04;23.80;99.20
21895;DHT22;11112;51.270;7.224;2023-09-12T09:50:33;23.80;98.50
21895;DHT22;11112;51.270;7.224;2023-09-12T09:53:03;23.80;98.70
21895;DHT22;11112;51.270;7.224;2023-09-12T09:55:34;23.90;98.50
21895;DHT22;11112;51.270;7.224;2023-09-12T09:58:03;23.90;98.60
21895;DHT22;11112;51.270;7.224;2023-09-12T10:00:34;23.90;98.40
21895;DHT22;11112;51.270;7.224;2023-09-12T10:03:04;24.00;98.40
21895;DHT22;11112;51.270;7.224;2023-09-12T10:05:32;23.90;98.40
21895;DHT22;11112;51.270;7.224;2023-09-12T10:08:03;23.90;98.30
21895;DHT22;11112;51.270;7.224;2023-09-12T10:10:36;23.90;98.30
21895;DHT22;11112;51.270;7.224;2023-09-12T10:13:08;23.90;98.50
21895;DHT22;11112;51.270;7.224;2023-09-12T10:15:37;23.90;98.60
21895;DHT22;11112;51.270;7.224;2023-09-12T10:18:08;23.90;98.40
21895;DHT22;11112;51.270;7.224;2023-09-12T10:20:42;23.90;98.10
21895;DHT22;11112;51.270;7.224;2023-09-12T10:23:16;23.80;98.20
21895;DHT22;11112;51.270;7.224;2023-09-12T10:25:48;23.90;98.30
21895;DHT22;11112;51.270;7.224;2023-09-12T10:28:18;23.90;98.20
21895;DHT22;11112;51.270;7.224;2023-09-12T10:30:47;23.90;98.20
21895;DHT22;11112;51.270;7.224;2023-09-12T10:33:15;23.90;98.00
21895;DHT22;11112;51.270;7.224;2023-09-12T10:35:45;24.00;98.30
21895;DHT22;11112;51.270;7.224;2023-09-12T10:38:13;23.90;97.40
21895;DHT22;11112;51.270;7.224;2023-09-12T10:40:44;24.00;97.10
21895;DHT22;11112;51.270;7.224;2023-09-12T10:43:13;23.90;97.20
21895;DHT22;11112;51.270;7.224;2023-09-12T10:45:43;24.00;97.60
21895;DHT22;11112;51.270;7.224;2023-09-12T10:48:11;24.00;97.60
21895;DHT22;11112;51.270;7.224;2023-09-12T10:50:39;24.00;97.30
21895;DHT22;11112;51.270;7.224;2023-09-12T10:53:15;24.00;97.80
21895;DHT22;11112;51.270;7.224;2023-09-12T10:55:58;24.10;97.20
21895;DHT22;11112;51.270;7.224;2023-09-12T10:58:26;24.10;97.70
21895;DHT22;11112;51.270;7.224;2023-09-12T11:01:23;24.10;97.30
21895;DHT22;11112;51.270;7.224;2023-09-12T11:03:52;24.10;97.40
21895;DHT22;11112;51.270;7.224;2023-09-12T11:06:23;24.10;97.20
21895;DHT22;11112;51.270;7.224;2023-09-12T11:09:17;24.10;97.00
21895;DHT22;11112;51.270;7.224;2023-09-12T11:11:47;24.10;97.10
21895;DHT22;11112;51.270;7.224;2023-09-12T11:14:15;24.10;97.20
21895;DHT22;11112;51.270;7.224;2023-09-12T11:17:20;24.10;97.20
21895;DHT22;11112;51.270;7.224;2023-09-12T11:19:50;24.10;97.00
21895;DHT22;11112;51.270;7.224;2023-09-12T11:22:26;24.10;97.10
21895;DHT22;11112;51.270;7.224;2023-09-12T11:24:54;24.10;97.40
21895;DHT22;11112;51.270;7.224;2023-09-12T11:27:24;24.10;97.40
21895;DHT22;11112;51.270;7.224;2023-09-12T11:29:52;24.20;97.50
21895;DHT22;11112;51.270;7.224;2023-09-12T11:32:30;24.10;97.20
21895;DHT22;11112;51.270;7.224;2023-09-12T11:35:00;24.20;97.60
21895;DHT22;11112;51.270;7.224;2023-09-12T11:37:32;24.20;97.40
21895;DHT22;11112;51.270;7.224;2023-09-12T11:40:01;24.20;97.40
21895;DHT22;11112;51.270;7.224;2023-09-12T11:42:30;24.20;97.50
21895;DHT22;11112;51.270;7.224;2023-09-12T11:44:58;24.20;97.60
21895;DHT22;11112;51.270;7.224;2023-09-12T11:47:27;24.20;97.50
21895;DHT22;11112;51.270;7.224;2023-09-12T11:49:54;24.20;97.60
21895;DHT22;11112;51.270;7.224;2023-09-12T11:52:21;24.20;97.60
21895;DHT22;11112;51.270;7.224;2023-09-12T11:54:49;24.20;97.80
21895;DHT22;11112;51.270;7.224;2023-09-12T11:57:17;24.20;97.70
21895;DHT22;11112;51.270;7.224;2023-09-12T11:59:48;24.30;97.70
21895;DHT22;11112;51.270;7.224;2023-09-12T12:02:15;24.30;97.90
21895;DHT22;11112;51.270;7.224;2023-09-12T12:04:44;24.30;97.80
21895;DHT22;11112;51.270;7.224;2023-09-12T12:07:13;24.30;98.00
21895;DHT22;11112;51.270;7.224;2023-09-12T12:09:40;24.30;97.80
21895;DHT22;11112;51.270;7.224;2023-09-12T12:12:11;24.20;97.80
21895;DHT22;11112;51.270;7.224;2023-09-12T12:14:41;24.20;97.90
21895;DHT22;11112;51.270;7.224;2023-09-12T12:17:11;24.20;97.80
21895;DHT22;11112;51.270;7.224;2023-09-12T12:19:38;24.20;97.80
21895;DHT22;11112;51.270;7.224;2023-09-12T12:22:09;24.30;97.70
21895;DHT22;11112;51.270;7.224;2023-09-12T12:24:37;24.30;97.70
21895;DHT22;11112;51.270;7.224;2023-09-12T12:27:05;24.30;97.70
21895;DHT22;11112;51.270;7.224;2023-09-12T12:29:33;24.30;97.60
21895;DHT22;11112;51.270;7.224;2023-09-12T12:32:01;24.30;97.70
21895;DHT22;11112;51.270;7.224;2023-09-12T12:34:30;24.30;97.70
21895;DHT22;11112;51.270;7.224;2023-09-12T12:36:58;24.30;97.90
21895;DHT22;11112;51.270;7.224;2023-09-12T12:39:27;24.30;98.00
21895;DHT22;11112;51.270;7.224;2023-09-12T12:41:55;24.40;98.00
21895;DHT22;11112;51.270;7.224;2023-09-12T12:44:23;24.40;97.80
21895;DHT22;11112;51.270;7.224;2023-09-12T12:47:04;24.40;97.70
21895;DHT22;11112;51.270;7.224;2023-09-12T12:49:36;24.30;97.80
21895;DHT22;11112;51.270;7.224;2023-09-12T12:52:05;24.40;97.90
21895;DHT22;11112;51.270;7.224;2023-09-12T12:54:34;24.30;98.00
21895;DHT22;11112;51.270;7.224;2023-09-12T12:57:01;24.30;98.00
21895;DHT22;11112;51.270;7.224;2023-09-12T12:59:29;24.30;98.10
21895;DHT22;11112;51.270;7.224;2023-09-12T13:02:01;24.30;98.10
21895;DHT22;11112;51.270;7.224;2023-09-12T13:04:36;24.40;98.00
21895;DHT22;11112;51.270;7.224;2023-09-12T13:07:04;24.40;97.90
21895;DHT22;11112;51.270;7.224;2023-09-12T13:09:33;24.40;97.90
21895;DHT22;11112;51.270;7.224;2023-09-12T13:12:01;24.40;98.00
21895;DHT22;11112;51.270;7.224;2023-09-12T13:14:28;24.40;98.00
21895;DHT22;11112;51.270;7.224;2023-09-12T13:16:57;24.40;98.40
21895;DHT22;11112;51.270;7.224;2023-09-12T13:19:24;24.40;97.80
21895;DHT22;11112;51.270;7.224;2023-09-12T13:21:52;24.50;97.90
21895;DHT22;11112;51.270;7.224;2023-09-12T13:24:19;24.40;97.80
21895;DHT22;11112;51.270;7.224;2023-09-12T13:26:48;24.40;97.60
21895;DHT22;11112;51.270;7.224;2023-09-12T13:29:15;24.40;97.80
21895;DHT22;11112;51.270;7.224;2023-09-12T13:31:43;24.40;98.00
21895;DHT22;11112;51.270;7.224;2023-09-12T13:34:10;24.40;98.30
21895;DHT22;11112;51.270;7.224;2023-09-12T13:36:37;24.50;97.80
21895;DHT22;11112;51.270;7.224;2023-09-12T13:39:06;24.50;97.80
21895;DHT22;11112;51.270;7.224;2023-09-12T13:41:35;24.50;97.50
21895;DHT22;11112;51.270;7.224;2023-09-12T13:44:05;24.50;97.10
21895;DHT22;11112;51.270;7.224;2023-09-12T13:46:34;24.50;97.40
21895;DHT22;11112;51.270;7.224;2023-09-12T13:49:01;24.50;97.50
21895;DHT22;11112;51.270;7.224;2023-09-12T13:51:30;24.50;97.70
21895;DHT22;11112;51.270;7.224;2023-09-12T13:53:59;24.50;97.70
21895;DHT22;11112;51.270;7.224;2023-09-12T13:56:27;24.50;97.30
21895;DHT22;11112;51.270;7.224;2023-09-12T13:58:54;24.50;97.30
21895;DHT22;11112;51.270;7.224;2023-09-12T14:01:25;24.50;96.90
21895;DHT22;11112;51.270;7.224;2023-09-12T14:03:52;24.50;97.20
21895;DHT22;11112;51.270;7.224;2023-09-12T14:06:20;24.50;97.00
21895;DHT22;11112;51.270;7.224;2023-09-12T14:08:47;24.50;97.10
21895;DHT22;11112;51.270;7.224;2023-09-12T14:11:14;24.50;97.40
21895;DHT22;11112;51.270;7.224;2023-09-12T14:13:41;24.50;97.50
21895;DHT22;11112;51.270;7.224;2023-09-12T14:16:09;24.50;97.40
21895;DHT22;11112;51.270;7.224;2023-09-12T14:18:38;24.40;97.40
21895;DHT22;11112;51.270;7.224;2023-09-12T14:21:05;24.40;97.40
21895;DHT22;11112;51.270;7.224;2023-09-12T14:23:33;24.50;97.40
21895;DHT22;11112;51.270;7.224;2023-09-12T14:26:00;24.50;97.20
21895;DHT22;11112;51.270;7.224;2023-09-12T14:28:27;24.40;97.10
21895;DHT22;11112;51.270;7.224;2023-09-12T14:30:57;24.50;96.90
21895;DHT22;11112;51.270;7.224;2023-09-12T14:33:24;24.40;97.00
21895;DHT22;11112;51.270;7.224;2023-09-12T14:35:53;24.50;97.10
21895;DHT22;11112;51.270;7.224;2023-09-12T14:38:21;24.50;97.30
21895;DHT22;11112;51.270;7.224;2023-09-12T14:40:52;24.50;97.60
21895;DHT22;11112;51.270;7.224;2023-09-12T14:43:19;24.50;97.60
21895;DHT22;11112;51.270;7.224;2023-09-12T14:45:47;24.50;97.70
21895;DHT22;11112;51.270;7.224;2023-09-12T14:48:14;24.40;97.50
21895;DHT22;11112;51.270;7.224;2023-09-12T14:50:41;24.40;97.40
21895;DHT22;11112;51.270;7.224;2023-09-12T14:53:12;24.40;96.80
21895;DHT22;11112;51.270;7.224;2023-09-12T14:55:39;24.40;97.00
21895;DHT22;11112;51.270;7.224;2023-09-12T14:58:06;24.40;97.00
21895;DHT22;11112;51.270;7.224;2023-09-12T15:00:34;24.40;97.00
21895;DHT22;11112;51.270;7.224;2023-09-12T15:03:01;24.40;96.90
21895;DHT22;11112;51.270;7.224;2023-09-12T15:05:29;24.40;97.10
21895;DHT22;11112;51.270;7.224;2023-09-12T15:07:57;24.40;97.10
21895;DHT22;11112;51.270;7.224;2023-09-12T15:10:26;24.40;96.90
21895;DHT22;11112;51.270;7.224;2023-09-12T15:12:53;24.40;97.20
21895;DHT22;11112;51.270;7.224;2023-09-12T15:15:21;24.40;97.30
21895;DHT22;11112;51.270;7.224;2023-09-12T15:17:49;24.40;97.40
21895;DHT22;11112;51.270;7.224;2023-09-12T15:20:17;24.40;97.40
21895;DHT22;11112;51.270;7.224;2023-09-12T15:22:44;24.40;97.50
21895;DHT22;11112;51.270;7.224;2023-09-12T15:25:12;24.40;97.60
21895;DHT22;11112;51.270;7.224;2023-09-12T15:27:41;24.40;97.60
21895;DHT22;11112;51.270;7.224;2023-09-12T15:30:10;24.50;97.90
21895;DHT22;11112;51.270;7.224;2023-09-12T15:32:38;24.40;97.20
21895;DHT22;11112;51.270;7.224;2023-09-12T15:35:05;24.40;97.20
21895;DHT22;11112;51.270;7.224;2023-09-12T15:37:34;24.40;97.20
21895;DHT22;11112;51.270;7.224;2023-09-12T15:40:02;24.40;97.40